sensor_id;sensor_type;location;lat;lon;timestamp;P1;durP1;ratioP1;P2;durP2;ratioP2
842;SDS011;407;48.884;9.126;2022-10-17T00:00:19;8.98;;;4.00;;
842;SDS011;407;48.884;9.126;2022-10-17T00:02:44;8.73;;;4.40;;
842;SDS011;407;48.884;9.126;2022-10-17T00:05:10;10.17;;;4.00;;
842;SDS011;407;48.884;9.126;2022-10-17T00:07:36;11.70;;;4.90;;
842;SDS011;407;48.884;9.126;2022-10-17T00:10:02;8.38;;;4.38;;
842;SDS011;407;48.884;9.126;2022-10-17T00:12:28;9.33;;;4.10;;
842;SDS011;407;48.884;9.126;2022-10-17T00:14:54;13.32;;;4.60;;
842;SDS011;407;48.884;9.126;2022-10-17T00:17:19;10.20;;;3.85;;
842;SDS011;407;48.884;9.126;2022-10-17T00:19:45;8.10;;;3.90;;
842;SDS011;407;48.884;9.126;2022-10-17T00:22:11;10.63;;;4.20;;
842;SDS011;407;48.884;9.126;2022-10-17T00:24:37;8.40;;;4.00;;
842;SDS011;407;48.884;9.126;2022-10-17T00:27:03;9.77;;;3.80;;
842;SDS011;407;48.884;9.126;2022-10-17T00:29:28;9.38;;;4.22;;
842;SDS011;407;48.884;9.126;2022-10-17T00:31:55;8.30;;;3.70;;
842;SDS011;407;48.884;9.126;2022-10-17T00:34:21;8.55;;;3.53;;
842;SDS011;407;48.884;9.126;2022-10-17T00:36:47;8.27;;;3.70;;
842;SDS011;407;48.884;9.126;2022-10-17T00:39:12;9.75;;;3.90;;
842;SDS011;407;48.884;9.126;2022-10-17T00:41:38;11.70;;;3.90;;
842;SDS011;407;48.884;9.126;2022-10-17T00:44:56;10.73;;;3.80;;
842;SDS011;407;48.884;9.126;2022-10-17T00:46:56;11.30;;;3.83;;
842;SDS011;407;48.884;9.126;2022-10-17T00:49:23;8.48;;;3.33;;
842;SDS011;407;48.884;9.126;2022-10-17T00:51:52;10.07;;;3.50;;
842;SDS011;407;48.884;9.126;2022-10-17T00:54:20;12.30;;;3.88;;
842;SDS011;407;48.884;9.126;2022-10-17T00:56:52;7.90;;;3.60;;
842;SDS011;407;48.884;9.126;2022-10-17T00:59:19;8.65;;;3.50;;
842;SDS011;407;48.884;9.126;2022-10-17T01:01:57;6.88;;;3.25;;
842;SDS011;407;48.884;9.126;2022-10-17T01:04:25;7.90;;;3.42;;
842;SDS011;407;48.884;9.126;2022-10-17T01:06:51;8.30;;;3.33;;
842;SDS011;407;48.884;9.126;2022-10-17T01:09:17;9.55;;;3.60;;
842;SDS011;407;48.884;9.126;2022-10-17T01:11:50;8.90;;;3.45;;
842;SDS011;407;48.884;9.126;2022-10-17T01:17:11;6.80;;;3.20;;
842;SDS011;407;48.884;9.126;2022-10-17T01:19:50;6.50;;;2.80;;
842;SDS011;407;48.884;9.126;2022-10-17T01:22:39;6.53;;;3.03;;
842;SDS011;407;48.884;9.126;2022-10-17T01:28:13;6.45;;;2.70;;
842;SDS011;407;48.884;9.126;2022-10-17T01:44:11;7.70;;;3.20;;
842;SDS011;407;48.884;9.126;2022-10-17T01:46:40;9.02;;;3.00;;
842;SDS011;407;48.884;9.126;2022-10-17T01:49:10;7.30;;;2.90;;
842;SDS011;407;48.884;9.126;2022-10-17T01:51:41;6.25;;;2.67;;
842;SDS011;407;48.884;9.126;2022-10-17T01:54:12;7.28;;;2.80;;
842;SDS011;407;48.884;9.126;2022-10-17T01:56:53;8.95;;;3.10;;
842;SDS011;407;48.884;9.126;2022-10-17T01:59:24;7.77;;;3.00;;
842;SDS011;407;48.884;9.126;2022-10-17T02:01:56;9.20;;;2.90;;
842;SDS011;407;48.884;9.126;2022-10-17T02:04:23;6.88;;;2.60;;
842;SDS011;407;48.884;9.126;2022-10-17T02:06:50;12.30;;;3.00;;
842;SDS011;407;48.884;9.126;2022-10-17T02:09:16;7.60;;;3.10;;
842;SDS011;407;48.884;9.126;2022-10-17T02:11:51;7.78;;;3.10;;
842;SDS011;407;48.884;9.126;2022-10-17T02:14:30;8.85;;;2.70;;
842;SDS011;407;48.884;9.126;2022-10-17T02:20:24;7.80;;;2.60;;
842;SDS011;407;48.884;9.126;2022-10-17T02:23:02;6.70;;;2.35;;
842;SDS011;407;48.884;9.126;2022-10-17T02:25:35;6.85;;;3.00;;
842;SDS011;407;48.884;9.126;2022-10-17T02:30:48;6.30;;;2.50;;
842;SDS011;407;48.884;9.126;2022-10-17T02:35:57;8.30;;;2.58;;
842;SDS011;407;48.884;9.126;2022-10-17T02:38:27;6.50;;;2.50;;
842;SDS011;407;48.884;9.126;2022-10-17T02:40:55;7.20;;;2.30;;
842;SDS011;407;48.884;9.126;2022-10-17T02:43:21;7.82;;;2.80;;
842;SDS011;407;48.884;9.126;2022-10-17T02:45:48;6.70;;;2.43;;
842;SDS011;407;48.884;9.126;2022-10-17T02:48:28;7.70;;;2.40;;
842;SDS011;407;48.884;9.126;2022-10-17T02:56:13;7.13;;;2.35;;
842;SDS011;407;48.884;9.126;2022-10-17T02:58:42;7.30;;;2.60;;
842;SDS011;407;48.884;9.126;2022-10-17T03:01:11;6.65;;;2.70;;
842;SDS011;407;48.884;9.126;2022-10-17T03:03:37;7.18;;;2.50;;
842;SDS011;407;48.884;9.126;2022-10-17T03:06:03;6.00;;;2.50;;
842;SDS011;407;48.884;9.126;2022-10-17T03:08:28;8.10;;;2.90;;
842;SDS011;407;48.884;9.126;2022-10-17T03:10:54;8.60;;;2.70;;
842;SDS011;407;48.884;9.126;2022-10-17T03:13:20;8.03;;;2.67;;
842;SDS011;407;48.884;9.126;2022-10-17T03:15:45;7.68;;;3.28;;
842;SDS011;407;48.884;9.126;2022-10-17T03:18:11;7.20;;;3.60;;
842;SDS011;407;48.884;9.126;2022-10-17T03:20:37;7.70;;;3.15;;
842;SDS011;407;48.884;9.126;2022-10-17T03:23:02;7.33;;;3.47;;
842;SDS011;407;48.884;9.126;2022-10-17T03:25:28;9.07;;;3.37;;
842;SDS011;407;48.884;9.126;2022-10-17T03:27:54;7.82;;;3.30;;
842;SDS011;407;48.884;9.126;2022-10-17T03:30:23;12.17;;;3.60;;
842;SDS011;407;48.884;9.126;2022-10-17T03:32:48;11.30;;;3.65;;
842;SDS011;407;48.884;9.126;2022-10-17T03:35:14;9.00;;;3.70;;
842;SDS011;407;48.884;9.126;2022-10-17T03:37:39;11.80;;;3.73;;
842;SDS011;407;48.884;9.126;2022-10-17T03:40:05;10.30;;;3.58;;
842;SDS011;407;48.884;9.126;2022-10-17T03:42:31;8.90;;;3.17;;
842;SDS011;407;48.884;9.126;2022-10-17T03:44:57;9.20;;;3.65;;
842;SDS011;407;48.884;9.126;2022-10-17T03:47:22;9.20;;;3.00;;
842;SDS011;407;48.884;9.126;2022-10-17T03:49:48;9.80;;;3.30;;
842;SDS011;407;48.884;9.126;2022-10-17T03:52:13;8.95;;;3.60;;
842;SDS011;407;48.884;9.126;2022-10-17T03:54:39;8.73;;;3.27;;
842;SDS011;407;48.884;9.126;2022-10-17T03:57:05;9.10;;;3.25;;
842;SDS011;407;48.884;9.126;2022-10-17T03:59:30;13.45;;;3.70;;
842;SDS011;407;48.884;9.126;2022-10-17T04:01:56;6.53;;;3.37;;
842;SDS011;407;48.884;9.126;2022-10-17T04:04:22;9.27;;;3.65;;
842;SDS011;407;48.884;9.126;2022-10-17T04:06:47;9.00;;;3.20;;
842;SDS011;407;48.884;9.126;2022-10-17T04:09:13;9.23;;;3.20;;
842;SDS011;407;48.884;9.126;2022-10-17T04:11:38;7.57;;;2.95;;
842;SDS011;407;48.884;9.126;2022-10-17T04:14:04;8.67;;;3.43;;
842;SDS011;407;48.884;9.126;2022-10-17T04:16:30;10.77;;;3.53;;
842;SDS011;407;48.884;9.126;2022-10-17T04:18:57;8.20;;;3.50;;
842;SDS011;407;48.884;9.126;2022-10-17T04:21:26;9.70;;;3.30;;
842;SDS011;407;48.884;9.126;2022-10-17T04:23:56;7.85;;;3.53;;
842;SDS011;407;48.884;9.126;2022-10-17T04:26:23;7.72;;;3.65;;
842;SDS011;407;48.884;9.126;2022-10-17T04:28:49;7.80;;;3.80;;
842;SDS011;407;48.884;9.126;2022-10-17T04:31:15;7.70;;;3.50;;
842;SDS011;407;48.884;9.126;2022-10-17T04:33:42;9.30;;;3.50;;
842;SDS011;407;48.884;9.126;2022-10-17T04:36:11;8.30;;;3.30;;
842;SDS011;407;48.884;9.126;2022-10-17T04:38:38;10.57;;;3.60;;
842;SDS011;407;48.884;9.126;2022-10-17T04:41:04;6.30;;;2.83;;
842;SDS011;407;48.884;9.126;2022-10-17T04:43:32;10.70;;;3.30;;
842;SDS011;407;48.884;9.126;2022-10-17T04:46:00;7.65;;;3.70;;
842;SDS011;407;48.884;9.126;2022-10-17T04:48:27;7.35;;;3.30;;
842;SDS011;407;48.884;9.126;2022-10-17T04:50:58;7.10;;;3.50;;
842;SDS011;407;48.884;9.126;2022-10-17T04:53:27;7.93;;;3.28;;
842;SDS011;407;48.884;9.126;2022-10-17T04:55:54;7.82;;;3.20;;
842;SDS011;407;48.884;9.126;2022-10-17T04:58:20;11.67;;;3.43;;
842;SDS011;407;48.884;9.126;2022-10-17T05:00:46;9.25;;;3.90;;
842;SDS011;407;48.884;9.126;2022-10-17T05:03:11;8.90;;;4.00;;
842;SDS011;407;48.884;9.126;2022-10-17T05:05:38;12.02;;;4.60;;
842;SDS011;407;48.884;9.126;2022-10-17T05:08:04;11.00;;;4.80;;
842;SDS011;407;48.884;9.126;2022-10-17T05:10:41;9.32;;;3.88;;
842;SDS011;407;48.884;9.126;2022-10-17T05:13:08;8.70;;;3.63;;
842;SDS011;407;48.884;9.126;2022-10-17T05:15:35;7.68;;;3.65;;
842;SDS011;407;48.884;9.126;2022-10-17T05:18:02;7.93;;;3.15;;
842;SDS011;407;48.884;9.126;2022-10-17T05:20:28;10.52;;;3.20;;
842;SDS011;407;48.884;9.126;2022-10-17T05:22:54;8.90;;;3.72;;
842;SDS011;407;48.884;9.126;2022-10-17T05:25:20;10.85;;;3.85;;
842;SDS011;407;48.884;9.126;2022-10-17T05:27:46;8.40;;;3.50;;
842;SDS011;407;48.884;9.126;2022-10-17T05:30:11;7.97;;;3.53;;
842;SDS011;407;48.884;9.126;2022-10-17T05:32:37;10.70;;;3.50;;
842;SDS011;407;48.884;9.126;2022-10-17T05:35:04;10.15;;;4.20;;
842;SDS011;407;48.884;9.126;2022-10-17T05:37:30;9.25;;;3.83;;
842;SDS011;407;48.884;9.126;2022-10-17T05:39:56;9.67;;;4.30;;
842;SDS011;407;48.884;9.126;2022-10-17T05:42:22;10.07;;;4.00;;
842;SDS011;407;48.884;9.126;2022-10-17T05:44:48;11.77;;;4.30;;
842;SDS011;407;48.884;9.126;2022-10-17T05:47:13;9.33;;;3.77;;
842;SDS011;407;48.884;9.126;2022-10-17T05:49:39;8.25;;;3.88;;
842;SDS011;407;48.884;9.126;2022-10-17T05:52:05;8.70;;;3.80;;
842;SDS011;407;48.884;9.126;2022-10-17T05:54:31;10.43;;;3.88;;
842;SDS011;407;48.884;9.126;2022-10-17T05:56:57;9.50;;;4.20;;
842;SDS011;407;48.884;9.126;2022-10-17T05:59:25;8.85;;;3.50;;
842;SDS011;407;48.884;9.126;2022-10-17T06:01:51;10.45;;;4.13;;
842;SDS011;407;48.884;9.126;2022-10-17T06:04:18;9.75;;;4.30;;
842;SDS011;407;48.884;9.126;2022-10-17T06:06:43;9.20;;;3.90;;
842;SDS011;407;48.884;9.126;2022-10-17T06:09:09;11.07;;;3.60;;
842;SDS011;407;48.884;9.126;2022-10-17T06:11:35;8.13;;;4.00;;
842;SDS011;407;48.884;9.126;2022-10-17T06:14:01;9.10;;;4.18;;
842;SDS011;407;48.884;9.126;2022-10-17T06:16:27;11.10;;;4.50;;
842;SDS011;407;48.884;9.126;2022-10-17T06:18:52;12.43;;;4.00;;
842;SDS011;407;48.884;9.126;2022-10-17T06:21:20;9.73;;;4.67;;
842;SDS011;407;48.884;9.126;2022-10-17T06:23:47;9.07;;;4.57;;
842;SDS011;407;48.884;9.126;2022-10-17T06:26:12;8.97;;;4.00;;
842;SDS011;407;48.884;9.126;2022-10-17T06:28:38;11.35;;;4.43;;
842;SDS011;407;48.884;9.126;2022-10-17T06:31:08;10.70;;;4.43;;
842;SDS011;407;48.884;9.126;2022-10-17T06:33:36;11.50;;;4.72;;
842;SDS011;407;48.884;9.126;2022-10-17T06:36:02;8.77;;;4.20;;
842;SDS011;407;48.884;9.126;2022-10-17T06:38:29;8.25;;;3.85;;
842;SDS011;407;48.884;9.126;2022-10-17T06:41:02;9.30;;;3.93;;
842;SDS011;407;48.884;9.126;2022-10-17T06:43:33;10.73;;;4.35;;
842;SDS011;407;48.884;9.126;2022-10-17T06:46:02;10.48;;;4.28;;
842;SDS011;407;48.884;9.126;2022-10-17T06:48:28;9.43;;;4.00;;
842;SDS011;407;48.884;9.126;2022-10-17T06:50:57;9.17;;;3.53;;
842;SDS011;407;48.884;9.126;2022-10-17T06:53:25;10.43;;;3.47;;
842;SDS011;407;48.884;9.126;2022-10-17T06:55:52;8.02;;;4.03;;
842;SDS011;407;48.884;9.126;2022-10-17T06:58:19;12.90;;;4.00;;
842;SDS011;407;48.884;9.126;2022-10-17T07:00:45;8.00;;;3.60;;
842;SDS011;407;48.884;9.126;2022-10-17T07:03:11;8.43;;;3.20;;
842;SDS011;407;48.884;9.126;2022-10-17T07:05:36;11.43;;;3.80;;
842;SDS011;407;48.884;9.126;2022-10-17T07:08:05;8.67;;;3.53;;
842;SDS011;407;48.884;9.126;2022-10-17T07:10:31;12.53;;;4.30;;
842;SDS011;407;48.884;9.126;2022-10-17T07:13:02;11.65;;;6.20;;
842;SDS011;407;48.884;9.126;2022-10-17T07:15:28;10.10;;;6.65;;
842;SDS011;407;48.884;9.126;2022-10-17T07:17:54;9.13;;;4.70;;
842;SDS011;407;48.884;9.126;2022-10-17T07:20:19;11.53;;;10.23;;
842;SDS011;407;48.884;9.126;2022-10-17T07:22:45;7.90;;;4.20;;
842;SDS011;407;48.884;9.126;2022-10-17T07:25:10;10.57;;;3.45;;
842;SDS011;407;48.884;9.126;2022-10-17T07:27:36;9.27;;;3.40;;
842;SDS011;407;48.884;9.126;2022-10-17T07:30:02;8.60;;;3.40;;
842;SDS011;407;48.884;9.126;2022-10-17T07:32:27;9.40;;;3.40;;
842;SDS011;407;48.884;9.126;2022-10-17T07:34:53;9.60;;;3.70;;
842;SDS011;407;48.884;9.126;2022-10-17T07:37:19;7.70;;;3.30;;
842;SDS011;407;48.884;9.126;2022-10-17T07:39:44;8.40;;;3.80;;
842;SDS011;407;48.884;9.126;2022-10-17T07:42:10;9.17;;;3.80;;
842;SDS011;407;48.884;9.126;2022-10-17T07:44:35;10.27;;;4.38;;
842;SDS011;407;48.884;9.126;2022-10-17T07:47:01;10.13;;;3.90;;
842;SDS011;407;48.884;9.126;2022-10-17T07:49:26;9.60;;;3.78;;
842;SDS011;407;48.884;9.126;2022-10-17T07:51:52;10.20;;;4.00;;
842;SDS011;407;48.884;9.126;2022-10-17T07:54:18;9.83;;;4.03;;
842;SDS011;407;48.884;9.126;2022-10-17T07:56:43;7.80;;;3.37;;
842;SDS011;407;48.884;9.126;2022-10-17T07:59:14;8.90;;;3.65;;
842;SDS011;407;48.884;9.126;2022-10-17T08:01:42;10.68;;;3.97;;
842;SDS011;407;48.884;9.126;2022-10-17T08:04:08;10.38;;;3.90;;
842;SDS011;407;48.884;9.126;2022-10-17T08:06:34;9.25;;;3.72;;
842;SDS011;407;48.884;9.126;2022-10-17T08:08:59;9.47;;;3.80;;
842;SDS011;407;48.884;9.126;2022-10-17T08:11:26;9.45;;;3.90;;
842;SDS011;407;48.884;9.126;2022-10-17T08:13:51;10.90;;;4.15;;
842;SDS011;407;48.884;9.126;2022-10-17T08:16:17;9.57;;;4.10;;
842;SDS011;407;48.884;9.126;2022-10-17T08:18:43;8.23;;;4.50;;
842;SDS011;407;48.884;9.126;2022-10-17T08:21:09;13.10;;;4.17;;
842;SDS011;407;48.884;9.126;2022-10-17T08:23:37;11.57;;;3.70;;
842;SDS011;407;48.884;9.126;2022-10-17T08:26:03;9.67;;;3.97;;
842;SDS011;407;48.884;9.126;2022-10-17T08:28:32;10.30;;;4.00;;
842;SDS011;407;48.884;9.126;2022-10-17T08:31:07;10.85;;;3.80;;
842;SDS011;407;48.884;9.126;2022-10-17T08:33:34;9.82;;;3.90;;
842;SDS011;407;48.884;9.126;2022-10-17T08:36:00;8.82;;;3.50;;
842;SDS011;407;48.884;9.126;2022-10-17T08:38:27;9.95;;;3.90;;
842;SDS011;407;48.884;9.126;2022-10-17T08:40:55;9.40;;;3.58;;
842;SDS011;407;48.884;9.126;2022-10-17T08:43:36;10.40;;;3.83;;
842;SDS011;407;48.884;9.126;2022-10-17T08:46:19;9.70;;;3.40;;
842;SDS011;407;48.884;9.126;2022-10-17T08:48:45;9.47;;;3.80;;
842;SDS011;407;48.884;9.126;2022-10-17T08:51:18;8.82;;;3.75;;
842;SDS011;407;48.884;9.126;2022-10-17T08:54:09;9.48;;;3.90;;
842;SDS011;407;48.884;9.126;2022-10-17T08:56:44;8.95;;;3.85;;
842;SDS011;407;48.884;9.126;2022-10-17T08:59:13;9.25;;;3.80;;
842;SDS011;407;48.884;9.126;2022-10-17T09:06:55;10.02;;;3.70;;
842;SDS011;407;48.884;9.126;2022-10-17T09:09:41;12.68;;;4.00;;
842;SDS011;407;48.884;9.126;2022-10-17T09:20:21;8.43;;;3.80;;
842;SDS011;407;48.884;9.126;2022-10-17T09:23:10;10.77;;;4.07;;
842;SDS011;407;48.884;9.126;2022-10-17T09:25:46;10.73;;;3.65;;
842;SDS011;407;48.884;9.126;2022-10-17T09:28:16;11.77;;;4.00;;
842;SDS011;407;48.884;9.126;2022-10-17T09:30:55;8.85;;;3.70;;
842;SDS011;407;48.884;9.126;2022-10-17T09:33:26;8.43;;;3.40;;
842;SDS011;407;48.884;9.126;2022-10-17T09:36:14;11.25;;;6.40;;
842;SDS011;407;48.884;9.126;2022-10-17T09:38:42;11.77;;;6.32;;
842;SDS011;407;48.884;9.126;2022-10-17T09:41:19;10.80;;;5.80;;
842;SDS011;407;48.884;9.126;2022-10-17T09:43:56;8.57;;;5.50;;
842;SDS011;407;48.884;9.126;2022-10-17T09:46:24;11.85;;;4.95;;
842;SDS011;407;48.884;9.126;2022-10-17T09:49:00;10.65;;;5.25;;
842;SDS011;407;48.884;9.126;2022-10-17T09:51:31;8.15;;;5.25;;
842;SDS011;407;48.884;9.126;2022-10-17T09:53:59;9.10;;;5.37;;
842;SDS011;407;48.884;9.126;2022-10-17T09:56:27;11.13;;;5.00;;
842;SDS011;407;48.884;9.126;2022-10-17T09:58:57;9.13;;;4.40;;
842;SDS011;407;48.884;9.126;2022-10-17T10:01:27;8.37;;;4.47;;
842;SDS011;407;48.884;9.126;2022-10-17T10:04:07;8.47;;;3.07;;
842;SDS011;407;48.884;9.126;2022-10-17T10:06:33;9.60;;;3.30;;
842;SDS011;407;48.884;9.126;2022-10-17T10:08:59;7.53;;;3.08;;
842;SDS011;407;48.884;9.126;2022-10-17T10:14:27;10.35;;;2.90;;
842;SDS011;407;48.884;9.126;2022-10-17T10:17:00;9.18;;;3.70;;
842;SDS011;407;48.884;9.126;2022-10-17T10:19:32;7.60;;;3.25;;
842;SDS011;407;48.884;9.126;2022-10-17T10:22:03;9.07;;;3.00;;
842;SDS011;407;48.884;9.126;2022-10-17T10:24:30;8.73;;;3.15;;
842;SDS011;407;48.884;9.126;2022-10-17T10:27:01;7.85;;;3.30;;
842;SDS011;407;48.884;9.126;2022-10-17T10:29:29;9.10;;;3.17;;
842;SDS011;407;48.884;9.126;2022-10-17T10:32:11;8.73;;;3.08;;
842;SDS011;407;48.884;9.126;2022-10-17T10:34:46;10.05;;;3.58;;
842;SDS011;407;48.884;9.126;2022-10-17T10:37:18;9.07;;;3.22;;
842;SDS011;407;48.884;9.126;2022-10-17T10:39:53;8.20;;;2.93;;
842;SDS011;407;48.884;9.126;2022-10-17T10:44:48;8.20;;;3.50;;
842;SDS011;407;48.884;9.126;2022-10-17T10:47:19;9.43;;;3.10;;
842;SDS011;407;48.884;9.126;2022-10-17T10:49:49;7.55;;;2.80;;
842;SDS011;407;48.884;9.126;2022-10-17T10:52:18;10.55;;;2.90;;
842;SDS011;407;48.884;9.126;2022-10-17T10:54:55;8.20;;;3.00;;
842;SDS011;407;48.884;9.126;2022-10-17T10:57:38;9.50;;;3.45;;
842;SDS011;407;48.884;9.126;2022-10-17T11:00:13;8.03;;;2.90;;
842;SDS011;407;48.884;9.126;2022-10-17T11:02:45;7.90;;;2.47;;
842;SDS011;407;48.884;9.126;2022-10-17T11:10:38;8.50;;;3.03;;
842;SDS011;407;48.884;9.126;2022-10-17T11:13:24;8.47;;;2.90;;
842;SDS011;407;48.884;9.126;2022-10-17T11:15:56;7.40;;;2.70;;
842;SDS011;407;48.884;9.126;2022-10-17T11:18:50;10.32;;;2.50;;
842;SDS011;407;48.884;9.126;2022-10-17T11:21:31;7.30;;;2.90;;
842;SDS011;407;48.884;9.126;2022-10-17T11:24:06;8.27;;;3.58;;
842;SDS011;407;48.884;9.126;2022-10-17T11:26:57;7.60;;;3.17;;
842;SDS011;407;48.884;9.126;2022-10-17T11:29:31;8.93;;;2.60;;
842;SDS011;407;48.884;9.126;2022-10-17T11:32:03;8.65;;;1.80;;
842;SDS011;407;48.884;9.126;2022-10-17T11:34:42;6.10;;;2.10;;
842;SDS011;407;48.884;9.126;2022-10-17T11:37:19;9.30;;;4.10;;
842;SDS011;407;48.884;9.126;2022-10-17T11:39:52;7.40;;;4.18;;
842;SDS011;407;48.884;9.126;2022-10-17T11:42:26;6.75;;;4.20;;
842;SDS011;407;48.884;9.126;2022-10-17T11:45:03;7.50;;;4.00;;
842;SDS011;407;48.884;9.126;2022-10-17T11:50:21;7.78;;;3.83;;
842;SDS011;407;48.884;9.126;2022-10-17T11:52:54;9.13;;;3.90;;
842;SDS011;407;48.884;9.126;2022-10-17T11:55:25;8.38;;;3.72;;
842;SDS011;407;48.884;9.126;2022-10-17T12:06:00;7.05;;;3.53;;
842;SDS011;407;48.884;9.126;2022-10-17T12:16:59;7.68;;;4.32;;
842;SDS011;407;48.884;9.126;2022-10-17T12:19:26;7.03;;;3.83;;
842;SDS011;407;48.884;9.126;2022-10-17T12:24:44;8.70;;;4.18;;
842;SDS011;407;48.884;9.126;2022-10-17T12:30:04;9.50;;;3.75;;
842;SDS011;407;48.884;9.126;2022-10-17T12:32:53;8.77;;;3.47;;
842;SDS011;407;48.884;9.126;2022-10-17T12:35:20;8.48;;;4.10;;
842;SDS011;407;48.884;9.126;2022-10-17T12:42:57;9.18;;;4.28;;
842;SDS011;407;48.884;9.126;2022-10-17T12:51:08;7.15;;;3.88;;
842;SDS011;407;48.884;9.126;2022-10-17T12:53:37;10.25;;;4.80;;
842;SDS011;407;48.884;9.126;2022-10-17T12:56:13;8.38;;;4.20;;
842;SDS011;407;48.884;9.126;2022-10-17T12:58:47;7.18;;;3.90;;
842;SDS011;407;48.884;9.126;2022-10-17T13:01:21;6.70;;;3.75;;
842;SDS011;407;48.884;9.126;2022-10-17T13:03:55;6.40;;;3.42;;
842;SDS011;407;48.884;9.126;2022-10-17T13:06:26;10.98;;;3.60;;
842;SDS011;407;48.884;9.126;2022-10-17T13:11:44;7.18;;;3.70;;
842;SDS011;407;48.884;9.126;2022-10-17T13:14:12;7.53;;;4.00;;
842;SDS011;407;48.884;9.126;2022-10-17T13:16:49;7.97;;;4.33;;
842;SDS011;407;48.884;9.126;2022-10-17T13:19:28;9.93;;;4.00;;
842;SDS011;407;48.884;9.126;2022-10-17T13:21:57;11.40;;;3.97;;
842;SDS011;407;48.884;9.126;2022-10-17T13:24:34;7.93;;;3.70;;
842;SDS011;407;48.884;9.126;2022-10-17T13:27:05;8.27;;;3.60;;
842;SDS011;407;48.884;9.126;2022-10-17T13:29:45;7.82;;;3.70;;
842;SDS011;407;48.884;9.126;2022-10-17T13:32:11;7.13;;;3.73;;
842;SDS011;407;48.884;9.126;2022-10-17T13:34:37;6.73;;;3.50;;
842;SDS011;407;48.884;9.126;2022-10-17T13:37:06;8.10;;;3.63;;
842;SDS011;407;48.884;9.126;2022-10-17T13:39:39;6.60;;;3.40;;
842;SDS011;407;48.884;9.126;2022-10-17T13:44:55;7.13;;;3.47;;
842;SDS011;407;48.884;9.126;2022-10-17T13:47:22;8.30;;;4.20;;
842;SDS011;407;48.884;9.126;2022-10-17T13:49:51;7.80;;;3.50;;
842;SDS011;407;48.884;9.126;2022-10-17T13:52:18;8.40;;;3.67;;
842;SDS011;407;48.884;9.126;2022-10-17T13:54:47;8.20;;;4.10;;
842;SDS011;407;48.884;9.126;2022-10-17T13:57:27;6.85;;;3.10;;
842;SDS011;407;48.884;9.126;2022-10-17T14:00:03;8.30;;;3.30;;
842;SDS011;407;48.884;9.126;2022-10-17T14:02:33;9.30;;;3.60;;
842;SDS011;407;48.884;9.126;2022-10-17T14:07:51;7.10;;;3.40;;
842;SDS011;407;48.884;9.126;2022-10-17T14:10:35;7.90;;;3.30;;
842;SDS011;407;48.884;9.126;2022-10-17T14:13:02;7.70;;;3.30;;
842;SDS011;407;48.884;9.126;2022-10-17T14:15:31;6.80;;;3.03;;
842;SDS011;407;48.884;9.126;2022-10-17T14:18:04;6.47;;;3.10;;
842;SDS011;407;48.884;9.126;2022-10-17T14:20:31;8.48;;;3.17;;
842;SDS011;407;48.884;9.126;2022-10-17T14:22:58;6.90;;;3.00;;
842;SDS011;407;48.884;9.126;2022-10-17T14:25:35;9.00;;;3.45;;
842;SDS011;407;48.884;9.126;2022-10-17T14:28:11;10.40;;;3.40;;
842;SDS011;407;48.884;9.126;2022-10-17T14:33:28;10.50;;;3.15;;
842;SDS011;407;48.884;9.126;2022-10-17T14:35:56;6.97;;;3.03;;
842;SDS011;407;48.884;9.126;2022-10-17T14:38:24;9.07;;;3.00;;
842;SDS011;407;48.884;9.126;2022-10-17T14:40:53;7.00;;;2.88;;
842;SDS011;407;48.884;9.126;2022-10-17T14:43:26;7.30;;;3.15;;
842;SDS011;407;48.884;9.126;2022-10-17T14:45:56;7.10;;;2.87;;
842;SDS011;407;48.884;9.126;2022-10-17T14:48:25;7.93;;;3.00;;
842;SDS011;407;48.884;9.126;2022-10-17T14:53:41;6.37;;;2.57;;
842;SDS011;407;48.884;9.126;2022-10-17T14:56:20;8.18;;;3.08;;
842;SDS011;407;48.884;9.126;2022-10-17T14:58:47;10.05;;;2.90;;
842;SDS011;407;48.884;9.126;2022-10-17T15:01:13;9.57;;;2.53;;
842;SDS011;407;48.884;9.126;2022-10-17T15:03:38;8.30;;;3.20;;
842;SDS011;407;48.884;9.126;2022-10-17T15:06:20;7.90;;;3.20;;
842;SDS011;407;48.884;9.126;2022-10-17T15:08:50;7.23;;;2.90;;
842;SDS011;407;48.884;9.126;2022-10-17T15:11:15;9.57;;;2.50;;
842;SDS011;407;48.884;9.126;2022-10-17T15:13:41;8.03;;;2.83;;
842;SDS011;407;48.884;9.126;2022-10-17T15:18:46;9.80;;;2.60;;
842;SDS011;407;48.884;9.126;2022-10-17T15:21:13;9.40;;;2.40;;
842;SDS011;407;48.884;9.126;2022-10-17T15:23:39;11.70;;;3.00;;
842;SDS011;407;48.884;9.126;2022-10-17T15:26:13;7.63;;;2.90;;
842;SDS011;407;48.884;9.126;2022-10-17T15:28:40;9.82;;;3.20;;
842;SDS011;407;48.884;9.126;2022-10-17T15:31:07;7.38;;;3.00;;
842;SDS011;407;48.884;9.126;2022-10-17T15:33:38;6.32;;;2.60;;
842;SDS011;407;48.884;9.126;2022-10-17T15:36:03;8.53;;;2.60;;
842;SDS011;407;48.884;9.126;2022-10-17T15:38:29;6.50;;;2.53;;
842;SDS011;407;48.884;9.126;2022-10-17T15:40:55;7.30;;;2.60;;
842;SDS011;407;48.884;9.126;2022-10-17T15:43:20;12.13;;;2.90;;
842;SDS011;407;48.884;9.126;2022-10-17T15:45:46;7.80;;;2.70;;
842;SDS011;407;48.884;9.126;2022-10-17T15:48:17;10.63;;;2.85;;
842;SDS011;407;48.884;9.126;2022-10-17T15:50:48;8.73;;;2.88;;
842;SDS011;407;48.884;9.126;2022-10-17T15:53:14;8.48;;;2.80;;
842;SDS011;407;48.884;9.126;2022-10-17T15:55:39;8.80;;;2.90;;
842;SDS011;407;48.884;9.126;2022-10-17T15:58:05;9.50;;;3.40;;
842;SDS011;407;48.884;9.126;2022-10-17T16:00:34;6.90;;;2.90;;
842;SDS011;407;48.884;9.126;2022-10-17T16:03:00;8.60;;;2.63;;
842;SDS011;407;48.884;9.126;2022-10-17T16:05:25;7.23;;;2.90;;
842;SDS011;407;48.884;9.126;2022-10-17T16:07:52;8.90;;;3.00;;
842;SDS011;407;48.884;9.126;2022-10-17T16:10:18;6.75;;;2.70;;
842;SDS011;407;48.884;9.126;2022-10-17T16:12:45;9.32;;;2.63;;
842;SDS011;407;48.884;9.126;2022-10-17T16:15:14;9.02;;;3.15;;
842;SDS011;407;48.884;9.126;2022-10-17T16:17:46;7.65;;;2.42;;
842;SDS011;407;48.884;9.126;2022-10-17T16:20:12;8.10;;;2.72;;
842;SDS011;407;48.884;9.126;2022-10-17T16:22:38;7.70;;;3.00;;
842;SDS011;407;48.884;9.126;2022-10-17T16:25:28;7.35;;;2.53;;
842;SDS011;407;48.884;9.126;2022-10-17T16:27:54;8.45;;;2.60;;
842;SDS011;407;48.884;9.126;2022-10-17T16:30:22;7.82;;;2.42;;
842;SDS011;407;48.884;9.126;2022-10-17T16:32:49;7.50;;;3.10;;
842;SDS011;407;48.884;9.126;2022-10-17T16:35:17;8.00;;;2.30;;
842;SDS011;407;48.884;9.126;2022-10-17T16:37:44;11.18;;;3.40;;
842;SDS011;407;48.884;9.126;2022-10-17T16:40:10;9.20;;;2.88;;
842;SDS011;407;48.884;9.126;2022-10-17T16:42:36;7.05;;;2.70;;
842;SDS011;407;48.884;9.126;2022-10-17T16:45:02;12.83;;;8.23;;
842;SDS011;407;48.884;9.126;2022-10-17T16:47:28;12.25;;;6.80;;
842;SDS011;407;48.884;9.126;2022-10-17T16:49:53;13.10;;;7.07;;
842;SDS011;407;48.884;9.126;2022-10-17T16:52:19;10.50;;;4.90;;
842;SDS011;407;48.884;9.126;2022-10-17T16:54:45;10.50;;;3.90;;
842;SDS011;407;48.884;9.126;2022-10-17T16:57:10;9.30;;;3.60;;
842;SDS011;407;48.884;9.126;2022-10-17T16:59:36;11.13;;;3.42;;
842;SDS011;407;48.884;9.126;2022-10-17T17:02:02;9.83;;;4.00;;
842;SDS011;407;48.884;9.126;2022-10-17T17:04:27;10.97;;;4.00;;
842;SDS011;407;48.884;9.126;2022-10-17T17:06:53;8.97;;;3.60;;
842;SDS011;407;48.884;9.126;2022-10-17T17:09:18;9.48;;;3.85;;
842;SDS011;407;48.884;9.126;2022-10-17T17:11:44;11.43;;;3.90;;
842;SDS011;407;48.884;9.126;2022-10-17T17:14:10;7.30;;;3.30;;
842;SDS011;407;48.884;9.126;2022-10-17T17:16:36;8.20;;;3.70;;
842;SDS011;407;48.884;9.126;2022-10-17T17:19:06;8.00;;;3.00;;
842;SDS011;407;48.884;9.126;2022-10-17T17:21:34;11.02;;;3.50;;
842;SDS011;407;48.884;9.126;2022-10-17T17:24:00;12.13;;;5.70;;
842;SDS011;407;48.884;9.126;2022-10-17T17:26:28;9.80;;;4.72;;
842;SDS011;407;48.884;9.126;2022-10-17T17:28:56;9.27;;;4.30;;
842;SDS011;407;48.884;9.126;2022-10-17T17:31:24;10.77;;;4.85;;
842;SDS011;407;48.884;9.126;2022-10-17T17:33:51;10.65;;;3.45;;
842;SDS011;407;48.884;9.126;2022-10-17T17:36:22;11.27;;;3.30;;
842;SDS011;407;48.884;9.126;2022-10-17T17:38:50;9.52;;;3.38;;
842;SDS011;407;48.884;9.126;2022-10-17T17:41:19;9.63;;;3.30;;
842;SDS011;407;48.884;9.126;2022-10-17T17:43:45;7.75;;;3.40;;